createdAt,value
2023-02-16T04:34:38.526Z,91.65
2023-02-16T04:37:06.672Z,91.61
2023-02-16T04:39:35.349Z,91.66
2023-02-16T04:42:04.151Z,91.69
2023-02-16T04:44:33.009Z,91.71
2023-02-16T04:47:01.075Z,91.72
2023-02-16T04:49:29.136Z,91.74
2023-02-16T04:51:57.500Z,91.75
2023-02-16T04:54:25.471Z,91.77
2023-02-16T04:56:53.640Z,91.79
2023-02-16T04:59:21.770Z,91.81
2023-02-16T05:01:50.019Z,91.82
2023-02-16T05:04:19.090Z,91.82
2023-02-16T05:06:47.058Z,91.79
2023-02-16T05:09:15.279Z,91.77
2023-02-16T05:12:02.228Z,91.74
2023-02-16T05:14:45.633Z,91.70
2023-02-16T05:17:19.639Z,91.66
2023-02-16T05:19:52.342Z,91.63
2023-02-16T05:22:21.086Z,91.59
2023-02-16T05:24:49.431Z,91.56
2023-02-16T05:27:23.093Z,91.55
2023-02-16T05:29:51.962Z,91.55
2023-02-16T05:32:20.723Z,91.56
2023-02-16T05:34:48.752Z,91.57
2023-02-16T05:37:18.725Z,91.57
2023-02-16T05:39:46.918Z,91.57
2023-02-16T05:42:14.874Z,91.54
2023-02-16T05:44:42.861Z,91.52
2023-02-16T05:47:11.425Z,91.47
2023-02-16T05:49:39.477Z,91.47
2023-02-16T05:52:07.514Z,91.52
2023-02-16T05:54:35.590Z,91.64
2023-02-16T05:57:04.330Z,91.78
2023-02-16T05:59:32.263Z,91.93
2023-02-16T06:02:00.911Z,92.07
2023-02-16T06:04:29.481Z,92.20
2023-02-16T06:06:57.464Z,92.33
2023-02-16T06:09:25.637Z,92.42
2023-02-16T06:11:54.700Z,92.49
2023-02-16T06:14:22.939Z,92.55
2023-02-16T06:16:54.431Z,92.63
2023-02-16T06:19:22.848Z,92.70
2023-02-16T06:21:51.220Z,92.76
2023-02-16T06:24:19.409Z,92.81
2023-02-16T06:26:47.517Z,92.84
2023-02-16T06:29:15.663Z,92.88
2023-02-16T06:31:43.875Z,92.89
2023-02-16T06:34:12.013Z,92.91
2023-02-16T06:36:42.388Z,92.91
2023-02-16T06:39:10.963Z,92.92
2023-02-16T06:41:40.524Z,92.93
2023-02-16T06:44:14.086Z,92.93
2023-02-16T06:46:44.422Z,92.92
2023-02-16T06:49:14.732Z,92.91
2023-02-16T06:51:43.036Z,92.89
2023-02-16T06:54:11.660Z,92.86
2023-02-16T06:56:40.108Z,92.83
2023-02-16T06:59:08.174Z,92.79
2023-02-16T07:01:36.192Z,92.74
2023-02-16T07:04:04.304Z,92.71
2023-02-16T07:06:32.605Z,92.68
2023-02-16T07:09:01.033Z,92.63
2023-02-16T07:11:29.318Z,92.59
2023-02-16T07:13:57.830Z,92.54
2023-02-16T07:16:26.030Z,92.51
2023-02-16T07:18:54.031Z,92.44
2023-02-16T07:21:22.082Z,92.37
2023-02-16T07:23:50.065Z,92.27
2023-02-16T07:26:19.323Z,92.16
2023-02-16T07:28:47.538Z,91.98
2023-02-16T07:31:17.526Z,91.74
2023-02-16T07:33:45.635Z,91.43
2023-02-16T07:36:14.332Z,91.17
2023-02-16T07:38:42.370Z,90.84
2023-02-16T07:41:11.900Z,90.36
2023-02-16T07:43:42.826Z,89.87
2023-02-16T07:46:11.023Z,89.23
2023-02-16T07:48:39.153Z,88.49
2023-02-16T07:51:07.868Z,87.73
2023-02-16T07:53:35.983Z,87.28
2023-02-16T07:56:04.275Z,86.66
2023-02-16T07:58:32.383Z,86.28
2023-02-16T08:01:08.187Z,85.73
2023-02-16T08:03:36.358Z,85.37
2023-02-16T08:06:05.040Z,85.27
2023-02-16T08:08:33.642Z,84.93
2023-02-16T08:11:11.802Z,84.10
2023-02-16T08:13:40.592Z,83.70
2023-02-16T08:16:10.804Z,83.45
2023-02-16T08:18:40.715Z,82.43
2023-02-16T08:21:14.510Z,82.17
2023-02-16T08:23:47.580Z,80.64
2023-02-16T08:26:19.606Z,80.27
2023-02-16T08:28:50.223Z,80.14
2023-02-16T08:31:25.101Z,79.55
2023-02-16T08:33:54.292Z,78.44
2023-02-16T08:36:29.667Z,79.18
2023-02-16T08:38:58.100Z,78.54
2023-02-16T08:41:30.869Z,78.71
2023-02-16T08:44:01.329Z,77.94
2023-02-16T08:46:32.518Z,78.09
2023-02-16T08:49:02.244Z,78.61
2023-02-16T08:51:34.753Z,78.32
2023-02-16T08:54:06.045Z,78.19
2023-02-16T08:56:34.629Z,77.80
2023-02-16T08:59:02.850Z,76.76
2023-02-16T09:01:30.930Z,76.99
2023-02-16T09:03:59.112Z,76.46
2023-02-16T09:06:27.665Z,76.01
2023-02-16T09:08:57.325Z,76.56
2023-02-16T09:11:25.819Z,77.36
2023-02-16T09:13:55.059Z,76.57
2023-02-16T09:16:24.547Z,76.38
2023-02-16T09:18:53.226Z,76.23
2023-02-16T09:21:25.704Z,76.28
2023-02-16T09:23:56.501Z,74.52
2023-02-16T09:26:26.885Z,74.69
2023-02-16T09:28:55.310Z,74.83
2023-02-16T09:31:27.769Z,74.83
2023-02-16T09:34:28.464Z,75.28
2023-02-16T09:36:56.587Z,75.19
2023-02-16T09:39:24.561Z,74.47
2023-02-16T09:42:15.869Z,74.50
2023-02-16T09:44:55.952Z,74.77
2023-02-16T09:47:31.205Z,74.74
2023-02-16T09:50:02.265Z,74.07
2023-02-16T09:52:37.718Z,74.37
2023-02-16T09:55:14.580Z,73.89
2023-02-16T09:58:01.325Z,73.68
2023-02-16T10:00:33.017Z,72.28
2023-02-16T10:03:40.024Z,71.58
2023-02-16T10:06:17.494Z,73.30
2023-02-16T10:08:51.482Z,72.79
2023-02-16T10:11:46.067Z,71.72
2023-02-16T10:14:50.594Z,72.49
2023-02-16T10:17:31.613Z,73.06
2023-02-16T10:20:19.864Z,72.15
2023-02-16T10:23:12.358Z,72.40
2023-02-16T10:25:40.127Z,71.31
2023-02-16T10:28:17.640Z,72.33
2023-02-16T10:31:00.932Z,71.70
2023-02-16T10:33:53.668Z,71.59
2023-02-16T10:36:27.647Z,70.64
2023-02-16T10:39:05.068Z,70.44
2023-02-16T10:41:45.841Z,71.40
2023-02-16T10:44:21.807Z,71.04
2023-02-16T10:46:59.948Z,70.95
2023-02-16T10:49:31.354Z,70.78
2023-02-16T10:52:03.501Z,70.59
2023-02-16T10:54:33.224Z,70.26
2023-02-16T10:57:06.100Z,69.92
2023-02-16T10:59:38.984Z,69.99
2023-02-16T11:04:41.505Z,69.30
2023-02-16T11:07:14.309Z,69.02
2023-02-16T11:09:44.055Z,68.36
2023-02-16T11:12:22.957Z,68.95
2023-02-16T11:14:54.136Z,69.28
2023-02-16T11:17:23.989Z,68.38
2023-02-16T11:19:56.551Z,68.83
2023-02-16T11:22:31.351Z,68.18
2023-02-16T11:25:17.911Z,67.58
2023-02-16T11:27:57.283Z,67.81
2023-02-16T11:30:37.396Z,68.77
2023-02-16T11:33:23.972Z,68.52
2023-02-16T11:35:52.522Z,68.09
2023-02-16T11:38:31.822Z,68.19
2023-02-16T11:41:02.494Z,68.31
2023-02-16T11:43:35.278Z,68.38
2023-02-16T11:46:22.974Z,68.42
2023-02-16T11:48:51.266Z,68.49
2023-02-16T11:51:34.529Z,68.21
2023-02-16T11:54:07.749Z,67.53
2023-02-16T11:56:35.839Z,66.68
2023-02-16T11:59:17.132Z,67.73
2023-02-16T12:02:00.587Z,67.73
2023-02-16T12:04:46.684Z,67.78
2023-02-16T12:07:36.684Z,67.60
2023-02-16T12:10:30.978Z,67.03
2023-02-16T12:13:10.902Z,66.91
2023-02-16T12:16:00.020Z,67.39
2023-02-16T12:18:42.468Z,67.06
2023-02-16T12:21:10.331Z,66.81
2023-02-16T12:24:18.377Z,67.66
2023-02-16T12:27:02.088Z,67.49
2023-02-16T12:29:53.844Z,67.15
2023-02-16T12:32:31.171Z,67.41
2023-02-16T12:35:36.648Z,67.03
2023-02-16T12:38:29.622Z,67.17
2023-02-16T12:41:16.141Z,65.34
2023-02-16T12:43:51.621Z,65.68
2023-02-16T12:46:24.049Z,65.84
2023-02-16T12:49:01.179Z,65.98
2023-02-16T12:51:36.301Z,66.41
2023-02-16T12:54:11.166Z,66.14
2023-02-16T12:56:45.843Z,66.43
2023-02-16T12:59:22.408Z,66.05
2023-02-16T13:01:54.962Z,66.25
2023-02-16T13:04:44.177Z,66.64
2023-02-16T13:07:23.392Z,66.15
2023-02-16T13:10:07.028Z,66.46
2023-02-16T13:12:58.137Z,65.82
2023-02-16T13:15:37.100Z,65.98
2023-02-16T13:18:20.327Z,66.42
2023-02-16T13:20:54.069Z,66.71
2023-02-16T13:23:27.703Z,66.78
2023-02-16T13:26:28.403Z,66.95
2023-02-16T13:29:23.185Z,66.89
2023-02-16T13:32:06.260Z,67.38
2023-02-16T13:34:38.334Z,67.73
2023-02-16T13:37:51.928Z,68.22
2023-02-16T13:40:36.716Z,68.39
2023-02-16T13:43:16.862Z,68.58
2023-02-16T13:45:47.567Z,69.02
2023-02-16T13:48:23.748Z,69.12
2023-02-16T13:51:15.475Z,69.15
2023-02-16T13:53:52.785Z,69.39
2023-02-16T13:56:29.722Z,69.56
2023-02-16T13:59:21.155Z,69.37
2023-02-16T14:01:50.966Z,69.56
2023-02-16T14:04:22.224Z,69.87
2023-02-16T14:07:13.399Z,69.99
2023-02-16T14:09:41.380Z,70.26
2023-02-16T14:12:09.468Z,70.47
2023-02-16T14:14:43.144Z,70.60
2023-02-16T14:17:25.111Z,70.54
2023-02-16T14:20:05.295Z,70.70
2023-02-16T14:22:57.477Z,70.91
2023-02-16T14:25:32.232Z,70.91
2023-02-16T14:28:21.548Z,71.07
2023-02-16T14:30:56.952Z,71.07
2023-02-16T14:33:43.700Z,71.24
2023-02-16T14:36:17.206Z,71.37
2023-02-16T14:38:49.950Z,71.48
2023-02-16T14:41:24.142Z,71.44
2023-02-16T14:44:25.854Z,71.33
2023-02-16T14:46:59.515Z,71.36
2023-02-16T14:49:51.901Z,71.40
2023-02-16T14:52:27.052Z,71.63
2023-02-16T14:55:40.189Z,71.74
2023-02-16T14:58:27.774Z,71.86
2023-02-16T15:01:16.412Z,72.06
2023-02-16T15:03:54.881Z,72.22
2023-02-16T15:06:31.601Z,72.46
2023-02-16T15:09:13.485Z,72.73
2023-02-16T15:12:08.989Z,72.94
2023-02-16T15:14:43.111Z,73.22
2023-02-16T15:17:36.497Z,73.58
2023-02-16T15:20:19.937Z,73.80
2023-02-16T15:22:54.406Z,74.03
2023-02-16T15:25:39.747Z,74.39
2023-02-16T15:28:10.821Z,74.47
2023-02-16T15:30:59.114Z,74.71
2023-02-16T15:33:33.701Z,75.04
2023-02-16T15:36:08.958Z,75.30
2023-02-16T15:38:39.746Z,75.54
2023-02-16T15:41:13.274Z,75.79
2023-02-16T15:43:50.357Z,76.00
2023-02-16T15:46:29.084Z,76.21
2023-02-16T15:48:57.441Z,76.26
2023-02-16T15:51:34.934Z,76.48
2023-02-16T15:54:07.478Z,76.46
2023-02-16T15:56:50.481Z,76.65
2023-02-16T15:59:35.376Z,76.75
2023-02-16T16:02:07.034Z,76.91
2023-02-16T16:04:38.909Z,76.97
2023-02-16T16:07:12.125Z,76.98
2023-02-16T16:09:42.186Z,77.03
2023-02-16T16:12:13.789Z,77.07
2023-02-16T16:14:56.994Z,77.21
2023-02-16T16:17:28.224Z,76.90
2023-02-16T16:19:58.288Z,76.89
2023-02-16T16:22:35.084Z,77.23
2023-02-16T16:25:42.222Z,77.18
2023-02-16T16:28:28.516Z,76.74
2023-02-16T16:31:31.256Z,76.68
2023-02-16T16:34:08.889Z,77.51
2023-02-16T16:36:47.038Z,77.62
2023-02-16T16:39:17.851Z,78.13
2023-02-16T16:42:06.586Z,78.70
2023-02-16T16:44:37.721Z,78.82
2023-02-16T16:47:26.734Z,79.96
2023-02-16T16:49:58.995Z,80.31
2023-02-16T16:52:45.057Z,80.59
2023-02-16T16:55:27.064Z,80.39
2023-02-16T16:58:01.336Z,79.78
2023-02-16T17:00:34.479Z,79.65
2023-02-16T17:03:04.889Z,79.87
2023-02-16T17:05:34.575Z,79.81
2023-02-16T17:08:04.180Z,79.59
2023-02-16T17:10:32.625Z,79.39
2023-02-16T17:13:01.024Z,79.82
2023-02-16T17:15:43.306Z,79.85
2023-02-16T17:18:21.141Z,79.69
2023-02-16T17:20:50.466Z,79.48
2023-02-16T17:23:20.316Z,80.31
2023-02-16T17:25:52.097Z,80.57
2023-02-16T17:28:21.306Z,80.92
2023-02-16T17:30:49.319Z,81.28
2023-02-16T17:33:17.238Z,81.99
2023-02-16T17:35:45.285Z,82.61
2023-02-16T17:38:18.906Z,83.10
2023-02-16T17:40:49.289Z,83.66
2023-02-16T17:43:18.815Z,84.29
2023-02-16T17:45:47.441Z,84.76
2023-02-16T17:48:30.305Z,85.02
2023-02-16T17:50:58.394Z,85.37
2023-02-16T17:53:27.558Z,85.60
2023-02-16T17:55:57.869Z,85.87
2023-02-16T17:58:26.172Z,86.08
2023-02-16T18:00:54.366Z,86.12
2023-02-16T18:03:23.161Z,86.20
2023-02-16T18:05:51.699Z,86.25
2023-02-16T18:08:20.189Z,86.13
2023-02-16T18:10:51.553Z,86.16
2023-02-16T18:13:20.467Z,86.15
2023-02-16T18:15:49.809Z,86.09
2023-02-16T18:18:19.107Z,86.02
2023-02-16T18:20:47.524Z,86.09
2023-02-16T18:23:15.989Z,85.98
2023-02-16T18:25:44.318Z,85.92
2023-02-16T18:28:20.083Z,85.79
2023-02-16T18:30:49.386Z,85.68
2023-02-16T18:33:22.200Z,85.56
2023-02-16T18:35:57.589Z,85.33
2023-02-16T18:38:25.836Z,85.10
2023-02-16T18:40:54.955Z,85.02
2023-02-16T18:43:23.881Z,84.98
2023-02-16T18:45:52.107Z,84.84
2023-02-16T18:48:21.890Z,84.64
2023-02-16T18:50:49.986Z,84.50
2023-02-16T18:53:17.967Z,84.46
2023-02-16T18:55:46.137Z,84.36
2023-02-16T18:58:15.043Z,84.27
2023-02-16T19:04:36.634Z,83.83
2023-02-16T19:07:04.991Z,83.71
2023-02-16T19:09:33.276Z,83.70
2023-02-16T19:12:01.260Z,83.65
2023-02-16T19:14:29.291Z,83.60
2023-02-16T19:16:57.418Z,83.58
2023-02-16T19:19:25.521Z,83.48
2023-02-16T19:21:54.355Z,83.39
2023-02-16T19:24:22.883Z,83.40
2023-02-16T19:26:50.968Z,83.39
2023-02-16T19:29:18.921Z,83.40
2023-02-16T19:31:47.973Z,83.29
2023-02-16T19:34:17.069Z,83.23
2023-02-16T19:36:45.428Z,83.19
2023-02-16T19:39:13.724Z,83.22
2023-02-16T19:41:46.271Z,83.22
2023-02-16T19:44:14.880Z,83.24
2023-02-16T19:46:43.332Z,83.31
2023-02-16T19:49:14.487Z,83.30
2023-02-16T19:51:42.946Z,83.28
2023-02-16T19:54:11.020Z,83.37
2023-02-16T19:56:40.608Z,83.27
2023-02-16T19:59:08.992Z,83.26
2023-02-16T20:01:37.004Z,83.25
2023-02-16T20:04:05.462Z,83.34
2023-02-16T20:06:40.470Z,83.37
2023-02-16T20:09:12.435Z,83.42
2023-02-16T20:11:41.388Z,83.47
2023-02-16T20:14:11.342Z,83.55
2023-02-16T20:16:40.719Z,83.73
2023-02-16T20:19:08.851Z,83.73
2023-02-16T20:21:37.069Z,83.81
2023-02-16T20:24:06.917Z,83.94
2023-02-16T20:26:41.368Z,84.04
2023-02-16T20:29:11.586Z,84.06
2023-02-16T20:31:43.687Z,84.19
2023-02-16T20:34:11.840Z,84.24
2023-02-16T20:36:39.933Z,84.25
2023-02-16T20:39:08.452Z,84.30
2023-02-16T20:41:37.100Z,84.33
2023-02-16T20:44:07.339Z,84.44
2023-02-16T20:46:35.713Z,84.52
2023-02-16T20:49:04.852Z,84.57
2023-02-16T20:51:33.144Z,84.55
2023-02-16T20:54:03.874Z,84.55
2023-02-16T20:56:32.249Z,84.61
2023-02-16T20:59:01.495Z,84.64
2023-02-16T21:01:33.744Z,84.72
2023-02-16T21:04:01.799Z,84.71
2023-02-16T21:06:30.274Z,84.69
2023-02-16T21:08:58.457Z,84.68
2023-02-16T21:11:27.297Z,84.82
2023-02-16T21:13:58.002Z,84.82
2023-02-16T21:16:26.308Z,84.79
2023-02-16T21:18:54.669Z,84.81
2023-02-16T21:21:23.548Z,84.84
2023-02-16T21:23:54.034Z,84.82
2023-02-16T21:26:24.826Z,84.76
2023-02-16T21:28:53.432Z,84.74
2023-02-16T21:31:24.380Z,84.83
2023-02-16T21:33:54.439Z,84.91
2023-02-16T21:36:25.041Z,84.92
2023-02-16T21:38:53.869Z,84.92
2023-02-16T21:41:24.679Z,84.95
2023-02-16T21:43:55.931Z,84.96
2023-02-16T21:46:25.409Z,85.02
2023-02-16T21:48:55.251Z,85.13
2023-02-16T21:51:29.676Z,85.16
2023-02-16T21:53:58.819Z,85.15
2023-02-16T21:56:50.386Z,85.18
2023-02-16T21:59:19.970Z,85.22
2023-02-16T22:01:54.367Z,85.26
2023-02-16T22:04:23.052Z,85.30
2023-02-16T22:06:51.785Z,85.24
2023-02-16T22:09:22.634Z,85.20
2023-02-16T22:11:51.529Z,85.12
2023-02-16T22:14:20.206Z,85.13
2023-02-16T22:16:48.828Z,85.13
2023-02-16T22:19:18.507Z,85.14
2023-02-16T22:21:48.046Z,85.12
2023-02-16T22:24:18.540Z,85.09
2023-02-16T22:26:48.537Z,85.05
2023-02-16T22:29:17.217Z,85.04
2023-02-16T22:31:47.591Z,85.03
2023-02-16T22:34:19.654Z,85.01
2023-02-16T22:36:48.010Z,85.01
2023-02-16T22:39:17.342Z,84.95
2023-02-16T22:41:45.375Z,84.98
2023-02-16T22:44:15.061Z,84.96
2023-02-16T22:46:43.516Z,84.92
2023-02-16T22:49:11.713Z,84.89
2023-02-16T22:51:40.261Z,84.86
2023-02-16T22:54:08.654Z,84.86
2023-02-16T22:56:36.652Z,84.81
2023-02-16T22:59:04.671Z,84.78
2023-02-16T23:01:33.062Z,84.74
2023-02-16T23:04:01.920Z,84.68
2023-02-16T23:06:34.240Z,84.63
2023-02-16T23:09:06.046Z,84.61
2023-02-16T23:11:35.184Z,84.62
2023-02-16T23:14:05.196Z,84.59
2023-02-16T23:16:33.355Z,84.51
2023-02-16T23:19:01.321Z,84.48
2023-02-16T23:21:33.156Z,84.41
2023-02-16T23:24:01.262Z,84.37
2023-02-16T23:26:31.123Z,84.30
2023-02-16T23:29:02.207Z,84.27
2023-02-16T23:31:38.814Z,84.20
2023-02-16T23:34:07.569Z,84.17
2023-02-16T23:36:37.329Z,84.15
2023-02-16T23:39:15.236Z,84.14
2023-02-16T23:41:43.549Z,84.08
2023-02-16T23:44:13.790Z,84.01
2023-02-16T23:46:41.921Z,83.99
2023-02-16T23:49:10.197Z,83.96
2023-02-16T23:51:38.224Z,83.86
2023-02-16T23:54:06.669Z,83.82
2023-02-16T23:56:35.448Z,83.76
2023-02-16T23:59:03.513Z,83.72
